sensor_id;sensor_type;location;lat;lon;timestamp;pressure;altitude;pressure_sealevel;temperature;humidity
6500;BME280;3283;52.330;9.772;2023-04-19T04:03:05;102119.56;;;5.11;79.85
6500;BME280;3283;52.330;9.772;2023-04-19T04:05:30;102121.50;;;5.17;78.99
6500;BME280;3283;52.330;9.772;2023-04-19T04:07:55;102116.38;;;5.20;78.68
6500;BME280;3283;52.330;9.772;2023-04-19T04:10:21;102118.56;;;5.33;78.52
6500;BME280;3283;52.330;9.772;2023-04-19T04:12:47;102124.72;;;5.35;78.65
6500;BME280;3283;52.330;9.772;2023-04-19T04:15:12;102114.34;;;5.37;78.56
6500;BME280;3283;52.330;9.772;2023-04-19T04:17:37;102120.31;;;5.34;78.59
6500;BME280;3283;52.330;9.772;2023-04-19T04:20:03;102120.31;;;5.34;78.06
6500;BME280;3283;52.330;9.772;2023-04-19T04:22:29;102123.78;;;5.33;78.63
6500;BME280;3283;52.330;9.772;2023-04-19T04:24:55;102116.59;;;5.26;78.43
6500;BME280;3283;52.330;9.772;2023-04-19T04:27:22;102111.50;;;5.29;78.49
6500;BME280;3283;52.330;9.772;2023-04-19T04:29:47;102119.31;;;5.29;78.65
6500;BME280;3283;52.330;9.772;2023-04-19T04:32:13;102117.47;;;5.27;78.69
6500;BME280;3283;52.330;9.772;2023-04-19T04:34:42;102110.72;;;5.33;78.41
6500;BME280;3283;52.330;9.772;2023-04-19T04:37:07;102123.78;;;5.33;78.18
6500;BME280;3283;52.330;9.772;2023-04-19T04:39:33;102117.44;;;5.25;78.25
6500;BME280;3283;52.330;9.772;2023-04-19T04:42:03;102119.31;;;5.29;78.24
6500;BME280;3283;52.330;9.772;2023-04-19T04:44:29;102121.94;;;5.29;78.40
6500;BME280;3283;52.330;9.772;2023-04-19T04:46:55;102122.09;;;5.35;78.25
6500;BME280;3283;52.330;9.772;2023-04-19T04:49:20;102113.94;;;5.24;78.22
6500;BME280;3283;52.330;9.772;2023-04-19T04:51:46;102129.69;;;5.28;78.68
6500;BME280;3283;52.330;9.772;2023-04-19T04:54:11;56484.91;;;-143.80;100.00
6500;BME280;3283;52.330;9.772;2023-04-19T04:56:37;56484.91;;;-143.80;100.00
6500;BME280;3283;52.330;9.772;2023-04-19T04:59:02;56484.91;;;-143.80;100.00
6500;BME280;3283;52.330;9.772;2023-04-19T05:01:29;56484.91;;;-143.80;100.00
6500;BME280;3283;52.330;9.772;2023-04-19T05:03:54;56484.91;;;-143.80;100.00
6500;BME280;3283;52.330;9.772;2023-04-19T05:06:19;56484.91;;;-143.80;100.00
6500;BME280;3283;52.330;9.772;2023-04-19T05:08:45;56484.91;;;-143.80;100.00
6500;BME280;3283;52.330;9.772;2023-04-19T05:11:10;56484.91;;;-143.80;100.00
6500;BME280;3283;52.330;9.772;2023-04-19T05:13:36;56484.91;;;-143.80;100.00
6500;BME280;3283;52.330;9.772;2023-04-19T05:16:01;56484.91;;;-143.80;100.00
6500;BME280;3283;52.330;9.772;2023-04-19T05:18:26;56484.91;;;-143.80;100.00
6500;BME280;3283;52.330;9.772;2023-04-19T05:20:52;56484.91;;;-143.80;100.00
6500;BME280;3283;52.330;9.772;2023-04-19T05:23:17;56484.91;;;-143.80;100.00
6500;BME280;3283;52.330;9.772;2023-04-19T05:25:43;56484.91;;;-143.80;100.00
6500;BME280;3283;52.330;9.772;2023-04-19T05:28:08;56484.91;;;-143.80;100.00
6500;BME280;3283;52.330;9.772;2023-04-19T05:30:33;56484.91;;;-143.80;100.00
6500;BME280;3283;52.330;9.772;2023-04-19T05:32:59;56484.91;;;-143.80;100.00
6500;BME280;3283;52.330;9.772;2023-04-19T05:35:24;56484.91;;;-143.80;100.00
6500;BME280;3283;52.330;9.772;2023-04-19T05:37:50;56484.91;;;-143.80;100.00
6500;BME280;3283;52.330;9.772;2023-04-19T05:40:15;56484.91;;;-143.80;100.00
6500;BME280;3283;52.330;9.772;2023-04-19T05:42:41;56484.91;;;-143.80;100.00
6500;BME280;3283;52.330;9.772;2023-04-19T05:45:08;56484.91;;;-143.80;100.00
6500;BME280;3283;52.330;9.772;2023-04-19T05:47:33;56484.91;;;-143.80;100.00
6500;BME280;3283;52.330;9.772;2023-04-19T05:50:23;102122.69;;;6.09;77.43
6500;BME280;3283;52.330;9.772;2023-04-19T05:52:48;102117.88;;;6.23;77.00
6500;BME280;3283;52.330;9.772;2023-04-19T05:55:14;102114.09;;;6.43;75.91
6500;BME280;3283;52.330;9.772;2023-04-19T05:57:39;102115.63;;;6.35;75.95
6500;BME280;3283;52.330;9.772;2023-04-19T06:00:05;102114.34;;;6.52;75.62
6500;BME280;3283;52.330;9.772;2023-04-19T06:02:32;102113.44;;;6.50;75.33
6500;BME280;3283;52.330;9.772;2023-04-19T06:04:58;102104.69;;;6.50;75.35
6500;BME280;3283;52.330;9.772;2023-04-19T06:07:23;102109.13;;;6.84;74.68
6500;BME280;3283;52.330;9.772;2023-04-19T06:09:49;102114.25;;;6.81;74.12
6500;BME280;3283;52.330;9.772;2023-04-19T06:12:14;102111.59;;;6.79;74.31
6500;BME280;3283;52.330;9.772;2023-04-19T06:14:39;102110.34;;;6.98;73.78
6500;BME280;3283;52.330;9.772;2023-04-19T06:17:05;102097.66;;;7.13;73.25
6500;BME280;3283;52.330;9.772;2023-04-19T06:19:30;102116.00;;;7.15;73.09
6500;BME280;3283;52.330;9.772;2023-04-19T06:21:58;102103.72;;;7.47;72.60
6500;BME280;3283;52.330;9.772;2023-04-19T06:24:24;102109.78;;;7.84;71.15
6500;BME280;3283;52.330;9.772;2023-04-19T06:26:50;102107.88;;;7.77;70.72
6500;BME280;3283;52.330;9.772;2023-04-19T06:29:15;102107.63;;;7.66;70.20
6500;BME280;3283;52.330;9.772;2023-04-19T06:31:40;102105.50;;;7.89;70.23
6500;BME280;3283;52.330;9.772;2023-04-19T06:34:06;102094.84;;;8.20;69.44
6500;BME280;3283;52.330;9.772;2023-04-19T06:36:32;102098.84;;;8.45;68.26
6500;BME280;3283;52.330;9.772;2023-04-19T06:38:57;102095.94;;;8.32;67.58
6500;BME280;3283;52.330;9.772;2023-04-19T06:41:23;102103.72;;;8.27;67.54
6500;BME280;3283;52.330;9.772;2023-04-19T06:43:48;102100.00;;;8.17;68.07
6500;BME280;3283;52.330;9.772;2023-04-19T06:46:13;102104.81;;;8.37;67.42
6500;BME280;3283;52.330;9.772;2023-04-19T06:48:39;102099.06;;;8.56;67.17
6500;BME280;3283;52.330;9.772;2023-04-19T06:51:06;102096.59;;;8.64;66.02
6500;BME280;3283;52.330;9.772;2023-04-19T06:53:31;102089.88;;;8.34;65.53
6500;BME280;3283;52.330;9.772;2023-04-19T06:56:00;102090.97;;;8.45;65.71
6500;BME280;3283;52.330;9.772;2023-04-19T06:58:26;102093.19;;;8.68;65.42
6500;BME280;3283;52.330;9.772;2023-04-19T07:00:52;102090.00;;;8.86;64.88
6500;BME280;3283;52.330;9.772;2023-04-19T07:03:17;102085.19;;;9.10;64.36
6500;BME280;3283;52.330;9.772;2023-04-19T07:05:43;102090.47;;;9.13;63.87
6500;BME280;3283;52.330;9.772;2023-04-19T07:08:08;102088.06;;;9.27;63.57
6500;BME280;3283;52.330;9.772;2023-04-19T07:10:34;102069.47;;;9.15;62.36
6500;BME280;3283;52.330;9.772;2023-04-19T07:12:59;102083.22;;;9.00;62.44
6500;BME280;3283;52.330;9.772;2023-04-19T07:15:24;102088.72;;;9.15;62.67
6500;BME280;3283;52.330;9.772;2023-04-19T07:17:50;102081.81;;;9.20;62.54
6500;BME280;3283;52.330;9.772;2023-04-19T07:20:15;102082.59;;;9.13;62.29
6500;BME280;3283;52.330;9.772;2023-04-19T07:22:41;102079.72;;;8.98;63.17
6500;BME280;3283;52.330;9.772;2023-04-19T07:25:06;102071.41;;;9.25;62.10
6500;BME280;3283;52.330;9.772;2023-04-19T07:27:32;102069.78;;;9.33;60.97
6500;BME280;3283;52.330;9.772;2023-04-19T07:29:57;102070.56;;;9.29;60.87
6500;BME280;3283;52.330;9.772;2023-04-19T07:32:22;102062.56;;;9.20;60.05
6500;BME280;3283;52.330;9.772;2023-04-19T07:34:48;102058.28;;;9.26;59.72
6500;BME280;3283;52.330;9.772;2023-04-19T07:37:15;102055.88;;;9.40;59.51
6500;BME280;3283;52.330;9.772;2023-04-19T07:39:40;102048.19;;;9.54;58.47
6500;BME280;3283;52.330;9.772;2023-04-19T07:42:06;102055.41;;;9.70;58.61
6500;BME280;3283;52.330;9.772;2023-04-19T07:44:31;102051.91;;;9.68;58.43
6500;BME280;3283;52.330;9.772;2023-04-19T07:46:56;102045.41;;;10.08;58.18
6500;BME280;3283;52.330;9.772;2023-04-19T07:49:22;102036.69;;;10.14;56.35
6500;BME280;3283;52.330;9.772;2023-04-19T07:51:47;102040.09;;;10.04;56.50
6500;BME280;3283;52.330;9.772;2023-04-19T07:54:13;102041.06;;;10.12;56.59
6500;BME280;3283;52.330;9.772;2023-04-19T07:56:40;102040.34;;;10.24;56.21
6500;BME280;3283;52.330;9.772;2023-04-19T07:59:06;102031.66;;;10.29;55.79
6500;BME280;3283;52.330;9.772;2023-04-19T08:01:31;102040.34;;;10.24;55.86
6500;BME280;3283;52.330;9.772;2023-04-19T08:03:56;102028.94;;;10.23;56.02
6500;BME280;3283;52.330;9.772;2023-04-19T08:06:22;102032.47;;;10.27;56.06
6500;BME280;3283;52.330;9.772;2023-04-19T08:08:47;102031.69;;;10.35;55.30
6500;BME280;3283;52.330;9.772;2023-04-19T08:11:13;102023.38;;;10.00;54.81
6500;BME280;3283;52.330;9.772;2023-04-19T08:13:38;102028.88;;;10.22;55.06
6500;BME280;3283;52.330;9.772;2023-04-19T08:16:04;102029.03;;;10.34;54.43
6500;BME280;3283;52.330;9.772;2023-04-19T08:18:30;102024.00;;;10.57;53.43
6500;BME280;3283;52.330;9.772;2023-04-19T08:20:55;102025.81;;;10.61;53.08
6500;BME280;3283;52.330;9.772;2023-04-19T08:23:21;102017.41;;;11.06;52.12
6500;BME280;3283;52.330;9.772;2023-04-19T08:25:46;102013.66;;;10.77;51.76
6500;BME280;3283;52.330;9.772;2023-04-19T08:28:12;102018.13;;;10.85;50.67
6500;BME280;3283;52.330;9.772;2023-04-19T08:30:37;102017.41;;;11.05;50.90
6500;BME280;3283;52.330;9.772;2023-04-19T08:33:03;102010.44;;;11.08;50.79
6500;BME280;3283;52.330;9.772;2023-04-19T08:35:28;102025.47;;;11.23;50.03
6500;BME280;3283;52.330;9.772;2023-04-19T08:37:53;102020.03;;;11.02;50.58
6500;BME280;3283;52.330;9.772;2023-04-19T08:40:19;102014.72;;;10.98;50.56
6500;BME280;3283;52.330;9.772;2023-04-19T08:42:44;56484.91;;;-143.80;100.00
6500;BME280;3283;52.330;9.772;2023-04-19T08:45:10;56484.91;;;-143.80;100.00
6500;BME280;3283;52.330;9.772;2023-04-19T08:47:38;56484.91;;;-143.80;100.00
6500;BME280;3283;52.330;9.772;2023-04-19T08:50:05;56484.91;;;-143.80;100.00
6500;BME280;3283;52.330;9.772;2023-04-19T08:52:33;56484.91;;;-143.80;100.00
6500;BME280;3283;52.330;9.772;2023-04-19T08:55:06;56484.91;;;-143.80;100.00
6500;BME280;3283;52.330;9.772;2023-04-19T08:57:33;56484.91;;;-143.80;100.00
6500;BME280;3283;52.330;9.772;2023-04-19T08:59:59;56484.91;;;-143.80;100.00
6500;BME280;3283;52.330;9.772;2023-04-19T09:02:25;56484.91;;;-143.80;100.00
6500;BME280;3283;52.330;9.772;2023-04-19T09:04:51;56484.91;;;-143.80;100.00
6500;BME280;3283;52.330;9.772;2023-04-19T09:07:26;56484.91;;;-143.80;100.00
6500;BME280;3283;52.330;9.772;2023-04-19T09:10:06;56484.91;;;-143.80;100.00
6500;BME280;3283;52.330;9.772;2023-04-19T09:12:33;56484.91;;;-143.80;100.00
6500;BME280;3283;52.330;9.772;2023-04-19T09:15:00;56484.91;;;-143.80;100.00
6500;BME280;3283;52.330;9.772;2023-04-19T09:17:25;56484.91;;;-143.80;100.00
6500;BME280;3283;52.330;9.772;2023-04-19T09:19:51;56484.91;;;-143.80;100.00
6500;BME280;3283;52.330;9.772;2023-04-19T09:22:16;56484.91;;;-143.80;100.00
6500;BME280;3283;52.330;9.772;2023-04-19T09:24:42;56484.91;;;-143.80;100.00
6500;BME280;3283;52.330;9.772;2023-04-19T09:27:07;56484.91;;;-143.80;100.00
6500;BME280;3283;52.330;9.772;2023-04-19T09:29:36;56484.91;;;-143.80;100.00
6500;BME280;3283;52.330;9.772;2023-04-19T09:32:01;56484.91;;;-143.80;100.00
6500;BME280;3283;52.330;9.772;2023-04-19T09:34:28;56484.91;;;-143.80;100.00
6500;BME280;3283;52.330;9.772;2023-04-19T09:36:55;56484.91;;;-143.80;100.00
6500;BME280;3283;52.330;9.772;2023-04-19T09:39:32;56484.91;;;-143.80;100.00
6500;BME280;3283;52.330;9.772;2023-04-19T09:42:00;56484.91;;;-143.80;100.00
6500;BME280;3283;52.330;9.772;2023-04-19T09:44:26;56484.91;;;-143.80;100.00
6500;BME280;3283;52.330;9.772;2023-04-19T09:46:52;56484.91;;;-143.80;100.00
6500;BME280;3283;52.330;9.772;2023-04-19T09:49:23;56484.91;;;-143.80;100.00
6500;BME280;3283;52.330;9.772;2023-04-19T09:51:50;56484.91;;;-143.80;100.00
6500;BME280;3283;52.330;9.772;2023-04-19T09:54:17;56484.91;;;-143.80;100.00
6500;BME280;3283;52.330;9.772;2023-04-19T09:56:43;56484.91;;;-143.80;100.00
6500;BME280;3283;52.330;9.772;2023-04-19T09:59:09;56484.91;;;-143.80;100.00
6500;BME280;3283;52.330;9.772;2023-04-19T10:01:55;56484.91;;;-143.80;100.00
6500;BME280;3283;52.330;9.772;2023-04-19T10:04:21;56484.91;;;-143.80;100.00
6500;BME280;3283;52.330;9.772;2023-04-19T10:06:51;56484.91;;;-143.80;100.00
6500;BME280;3283;52.330;9.772;2023-04-19T10:09:20;56484.91;;;-143.80;100.00
6500;BME280;3283;52.330;9.772;2023-04-19T10:11:50;56484.91;;;-143.80;100.00
6500;BME280;3283;52.330;9.772;2023-04-19T10:14:21;56484.91;;;-143.80;100.00
6500;BME280;3283;52.330;9.772;2023-04-19T10:16:47;56484.91;;;-143.80;100.00
6500;BME280;3283;52.330;9.772;2023-04-19T10:19:16;56484.91;;;-143.80;100.00
6500;BME280;3283;52.330;9.772;2023-04-19T10:21:43;56484.91;;;-143.80;100.00
6500;BME280;3283;52.330;9.772;2023-04-19T10:24:12;56484.91;;;-143.80;100.00
6500;BME280;3283;52.330;9.772;2023-04-19T10:27:11;56484.91;;;-143.80;100.00
6500;BME280;3283;52.330;9.772;2023-04-19T10:30:00;56484.91;;;-143.80;100.00
6500;BME280;3283;52.330;9.772;2023-04-19T10:32:30;56484.91;;;-143.80;100.00
6500;BME280;3283;52.330;9.772;2023-04-19T10:35:01;56484.91;;;-143.80;100.00
6500;BME280;3283;52.330;9.772;2023-04-19T10:37:30;56484.91;;;-143.80;100.00
6500;BME280;3283;52.330;9.772;2023-04-19T10:39:55;56484.91;;;-143.80;100.00
6500;BME280;3283;52.330;9.772;2023-04-19T10:42:21;56484.91;;;-143.80;100.00
6500;BME280;3283;52.330;9.772;2023-04-19T10:47:50;56484.91;;;-143.80;100.00
6500;BME280;3283;52.330;9.772;2023-04-19T10:50:16;56484.91;;;-143.80;100.00
6500;BME280;3283;52.330;9.772;2023-04-19T10:52:41;56484.91;;;-143.80;100.00
6500;BME280;3283;52.330;9.772;2023-04-19T10:55:07;56484.91;;;-143.80;100.00
6500;BME280;3283;52.330;9.772;2023-04-19T10:58:04;56484.91;;;-143.80;100.00
6500;BME280;3283;52.330;9.772;2023-04-19T11:00:30;56484.91;;;-143.80;100.00
6500;BME280;3283;52.330;9.772;2023-04-19T11:02:58;56484.91;;;-143.80;100.00
6500;BME280;3283;52.330;9.772;2023-04-19T11:05:24;56484.91;;;-143.80;100.00
6500;BME280;3283;52.330;9.772;2023-04-19T11:07:50;56484.91;;;-143.80;100.00
6500;BME280;3283;52.330;9.772;2023-04-19T11:10:28;56484.91;;;-143.80;100.00
6500;BME280;3283;52.330;9.772;2023-04-19T11:12:54;56484.91;;;-143.80;100.00
6500;BME280;3283;52.330;9.772;2023-04-19T11:15:23;56484.91;;;-143.80;100.00
6500;BME280;3283;52.330;9.772;2023-04-19T11:17:50;56484.91;;;-143.80;100.00
6500;BME280;3283;52.330;9.772;2023-04-19T11:20:16;56484.91;;;-143.80;100.00
6500;BME280;3283;52.330;9.772;2023-04-19T11:22:44;56484.91;;;-143.80;100.00
6500;BME280;3283;52.330;9.772;2023-04-19T11:25:20;56484.91;;;-143.80;100.00
6500;BME280;3283;52.330;9.772;2023-04-19T11:27:51;56484.91;;;-143.80;100.00
6500;BME280;3283;52.330;9.772;2023-04-19T11:30:21;56484.91;;;-143.80;100.00
6500;BME280;3283;52.330;9.772;2023-04-19T11:32:51;56484.91;;;-143.80;100.00
6500;BME280;3283;52.330;9.772;2023-04-19T11:35:25;56484.91;;;-143.80;100.00
6500;BME280;3283;52.330;9.772;2023-04-19T11:37:51;56484.91;;;-143.80;100.00
6500;BME280;3283;52.330;9.772;2023-04-19T11:40:18;56484.91;;;-143.80;100.00
6500;BME280;3283;52.330;9.772;2023-04-19T11:42:44;56484.91;;;-143.80;100.00
6500;BME280;3283;52.330;9.772;2023-04-19T11:45:11;56484.91;;;-143.80;100.00
6500;BME280;3283;52.330;9.772;2023-04-19T11:47:49;56484.91;;;-143.80;100.00
6500;BME280;3283;52.330;9.772;2023-04-19T11:53:22;56484.91;;;-143.80;100.00
6500;BME280;3283;52.330;9.772;2023-04-19T11:55:52;56484.91;;;-143.80;100.00
6500;BME280;3283;52.330;9.772;2023-04-19T12:01:06;56484.91;;;-143.80;100.00
6500;BME280;3283;52.330;9.772;2023-04-19T12:03:32;56484.91;;;-143.80;100.00
6500;BME280;3283;52.330;9.772;2023-04-19T12:05:59;56484.91;;;-143.80;100.00
6500;BME280;3283;52.330;9.772;2023-04-19T12:08:38;56484.91;;;-143.80;100.00
6500;BME280;3283;52.330;9.772;2023-04-19T12:11:05;56484.91;;;-143.80;100.00
6500;BME280;3283;52.330;9.772;2023-04-19T12:13:31;56484.91;;;-143.80;100.00
6500;BME280;3283;52.330;9.772;2023-04-19T12:15:58;56484.91;;;-143.80;100.00
6500;BME280;3283;52.330;9.772;2023-04-19T12:18:23;56484.91;;;-143.80;100.00
6500;BME280;3283;52.330;9.772;2023-04-19T12:20:50;56484.91;;;-143.80;100.00
6500;BME280;3283;52.330;9.772;2023-04-19T12:23:17;56484.91;;;-143.80;100.00
6500;BME280;3283;52.330;9.772;2023-04-19T12:25:45;56484.91;;;-143.80;100.00
6500;BME280;3283;52.330;9.772;2023-04-19T12:28:12;56484.91;;;-143.80;100.00
6500;BME280;3283;52.330;9.772;2023-04-19T12:30:38;56484.91;;;-143.80;100.00
6500;BME280;3283;52.330;9.772;2023-04-19T12:33:05;56484.91;;;-143.80;100.00
6500;BME280;3283;52.330;9.772;2023-04-19T12:35:31;56484.91;;;-143.80;100.00
6500;BME280;3283;52.330;9.772;2023-04-19T12:37:58;56484.91;;;-143.80;100.00
6500;BME280;3283;52.330;9.772;2023-04-19T12:40:24;56484.91;;;-143.80;100.00
6500;BME280;3283;52.330;9.772;2023-04-19T12:42:50;56484.91;;;-143.80;100.00
6500;BME280;3283;52.330;9.772;2023-04-19T12:45:16;56484.91;;;-143.80;100.00
6500;BME280;3283;52.330;9.772;2023-04-19T12:47:42;56484.91;;;-143.80;100.00
6500;BME280;3283;52.330;9.772;2023-04-19T12:50:08;56484.91;;;-143.80;100.00
6500;BME280;3283;52.330;9.772;2023-04-19T12:52:34;56484.91;;;-143.80;100.00
6500;BME280;3283;52.330;9.772;2023-04-19T12:54:59;56484.91;;;-143.80;100.00
6500;BME280;3283;52.330;9.772;2023-04-19T12:57:25;56484.91;;;-143.80;100.00
6500;BME280;3283;52.330;9.772;2023-04-19T12:59:51;56484.91;;;-143.80;100.00
6500;BME280;3283;52.330;9.772;2023-04-19T13:02:16;56484.91;;;-143.80;100.00
6500;BME280;3283;52.330;9.772;2023-04-19T13:04:42;56484.91;;;-143.80;100.00
6500;BME280;3283;52.330;9.772;2023-04-19T13:07:07;56484.91;;;-143.80;100.00
6500;BME280;3283;52.330;9.772;2023-04-19T13:09:32;56484.91;;;-143.80;100.00
6500;BME280;3283;52.330;9.772;2023-04-19T13:11:58;56484.91;;;-143.80;100.00
6500;BME280;3283;52.330;9.772;2023-04-19T13:14:25;56484.91;;;-143.80;100.00
6500;BME280;3283;52.330;9.772;2023-04-19T13:16:51;56484.91;;;-143.80;100.00
6500;BME280;3283;52.330;9.772;2023-04-19T13:19:16;56484.91;;;-143.80;100.00
6500;BME280;3283;52.330;9.772;2023-04-19T13:21:42;56484.91;;;-143.80;100.00
6500;BME280;3283;52.330;9.772;2023-04-19T13:24:08;56484.91;;;-143.80;100.00
6500;BME280;3283;52.330;9.772;2023-04-19T13:26:33;56484.91;;;-143.80;100.00
6500;BME280;3283;52.330;9.772;2023-04-19T13:47:26;101645.06;;;13.67;43.58
6500;BME280;3283;52.330;9.772;2023-04-19T13:49:51;101644.09;;;13.76;43.25
6500;BME280;3283;52.330;9.772;2023-04-19T13:52:18;101637.94;;;13.72;43.78
6500;BME280;3283;52.330;9.772;2023-04-19T13:54:43;101636.16;;;13.76;43.87
6500;BME280;3283;52.330;9.772;2023-04-19T13:57:08;101643.22;;;13.76;43.79
6500;BME280;3283;52.330;9.772;2023-04-19T13:59:34;101648.66;;;13.60;44.20
6500;BME280;3283;52.330;9.772;2023-04-19T14:02:02;101634.38;;;13.77;44.26
6500;BME280;3283;52.330;9.772;2023-04-19T14:04:27;101634.53;;;13.61;44.62
6500;BME280;3283;52.330;9.772;2023-04-19T14:06:53;101635.69;;;13.27;45.02
6500;BME280;3283;52.330;9.772;2023-04-19T14:09:18;101638.44;;;13.11;45.39
6500;BME280;3283;52.330;9.772;2023-04-19T14:11:43;101633.09;;;13.16;45.85
6500;BME280;3283;52.330;9.772;2023-04-19T14:14:09;101625.88;;;13.41;45.83
6500;BME280;3283;52.330;9.772;2023-04-19T14:16:34;101624.97;;;13.46;45.41
6500;BME280;3283;52.330;9.772;2023-04-19T14:19:00;101625.00;;;13.42;45.33
6500;BME280;3283;52.330;9.772;2023-04-19T14:21:25;101625.78;;;13.53;45.66
6500;BME280;3283;52.330;9.772;2023-04-19T14:23:51;101625.78;;;13.53;45.62
6500;BME280;3283;52.330;9.772;2023-04-19T14:26:17;101619.44;;;13.71;45.81
6500;BME280;3283;52.330;9.772;2023-04-19T14:28:42;101618.50;;;13.73;45.26
6500;BME280;3283;52.330;9.772;2023-04-19T14:31:07;101614.78;;;13.93;45.09
6500;BME280;3283;52.330;9.772;2023-04-19T14:33:33;101612.88;;;14.07;45.31
6500;BME280;3283;52.330;9.772;2023-04-19T14:35:58;101616.59;;;13.88;45.12
6500;BME280;3283;52.330;9.772;2023-04-19T14:38:24;101610.50;;;13.81;44.87
6500;BME280;3283;52.330;9.772;2023-04-19T15:43:20;101572.28;;;15.81;42.07
6500;BME280;3283;52.330;9.772;2023-04-19T15:45:45;101563.88;;;16.84;40.34
6500;BME280;3283;52.330;9.772;2023-04-19T15:48:10;101563.00;;;17.55;39.05
6500;BME280;3283;52.330;9.772;2023-04-19T15:50:37;101557.13;;;18.66;38.30
6500;BME280;3283;52.330;9.772;2023-04-19T15:53:03;101561.88;;;18.27;38.43
6500;BME280;3283;52.330;9.772;2023-04-19T15:55:29;101569.81;;;16.57;39.56
6500;BME280;3283;52.330;9.772;2023-04-19T15:57:54;101574.50;;;14.42;41.59
6500;BME280;3283;52.330;9.772;2023-04-19T16:00:20;101577.28;;;14.33;42.05
6500;BME280;3283;52.330;9.772;2023-04-19T16:02:46;101576.03;;;15.69;39.95
6500;BME280;3283;52.330;9.772;2023-04-19T16:05:12;101560.53;;;16.78;38.89
6500;BME280;3283;52.330;9.772;2023-04-19T16:07:37;101563.94;;;17.87;37.94
6500;BME280;3283;52.330;9.772;2023-04-19T16:10:03;101556.06;;;18.43;36.98
6500;BME280;3283;52.330;9.772;2023-04-19T16:12:29;101539.84;;;19.06;36.13
6500;BME280;3283;52.330;9.772;2023-04-19T16:14:54;101546.13;;;18.20;36.32
6500;BME280;3283;52.330;9.772;2023-04-19T16:17:19;101548.44;;;18.30;36.70
6500;BME280;3283;52.330;9.772;2023-04-19T16:19:45;101555.78;;;15.63;38.94
6500;BME280;3283;52.330;9.772;2023-04-19T16:22:10;101551.00;;;14.82;39.83
6500;BME280;3283;52.330;9.772;2023-04-19T16:24:36;101555.50;;;14.11;40.64
6500;BME280;3283;52.330;9.772;2023-04-19T16:27:01;101553.34;;;14.37;40.30
6500;BME280;3283;52.330;9.772;2023-04-19T16:29:27;101562.69;;;13.99;41.40
6500;BME280;3283;52.330;9.772;2023-04-19T16:31:52;101554.97;;;15.61;39.56
6500;BME280;3283;52.330;9.772;2023-04-19T16:34:18;101552.38;;;16.84;38.40
6500;BME280;3283;52.330;9.772;2023-04-19T16:36:44;101560.84;;;17.68;36.75
6500;BME280;3283;52.330;9.772;2023-04-19T16:39:10;101549.19;;;17.07;37.03
6500;BME280;3283;52.330;9.772;2023-04-19T16:41:36;101550.63;;;17.20;36.77
6500;BME280;3283;52.330;9.772;2023-04-19T16:44:01;101563.41;;;17.04;36.97
6500;BME280;3283;52.330;9.772;2023-04-19T16:46:27;101549.47;;;16.94;36.94
6500;BME280;3283;52.330;9.772;2023-04-19T16:48:52;101552.13;;;16.15;37.88
6500;BME280;3283;52.330;9.772;2023-04-19T16:51:17;101545.78;;;15.30;38.96
6500;BME280;3283;52.330;9.772;2023-04-19T16:53:43;101550.75;;;15.48;38.65
6500;BME280;3283;52.330;9.772;2023-04-19T16:56:10;101540.63;;;15.70;38.65
6500;BME280;3283;52.330;9.772;2023-04-19T16:58:35;101539.63;;;14.75;39.54
6500;BME280;3283;52.330;9.772;2023-04-19T17:01:01;101536.41;;;13.83;40.62
6500;BME280;3283;52.330;9.772;2023-04-19T17:03:26;101531.47;;;13.54;41.25
6500;BME280;3283;52.330;9.772;2023-04-19T17:05:54;101539.59;;;13.31;42.04
6500;BME280;3283;52.330;9.772;2023-04-19T17:08:20;101534.50;;;13.06;42.51
6500;BME280;3283;52.330;9.772;2023-04-19T17:10:46;101533.63;;;13.07;42.82
6500;BME280;3283;52.330;9.772;2023-04-19T17:13:11;101534.50;;;13.06;43.20
6500;BME280;3283;52.330;9.772;2023-04-19T17:18:12;101542.56;;;12.91;43.95
6500;BME280;3283;52.330;9.772;2023-04-19T17:20:37;101539.03;;;12.89;44.14
6500;BME280;3283;52.330;9.772;2023-04-19T17:23:02;101541.69;;;12.89;44.15
